sensor_id;sensor_type;location;lat;lon;timestamp;P1;durP1;ratioP1;P2;durP2;ratioP2
44046;SDS011;29713;-33.888;151.150;2023-03-05T00:01:17;4.05;;;0.70;;
44046;SDS011;29713;-33.888;151.150;2023-03-05T00:03:50;3.78;;;0.60;;
44046;SDS011;29713;-33.888;151.150;2023-03-05T00:06:20;2.22;;;0.52;;
44046;SDS011;29713;-33.888;151.150;2023-03-05T00:08:49;2.83;;;0.75;;
44046;SDS011;29713;-33.888;151.150;2023-03-05T00:11:18;1.85;;;0.82;;
44046;SDS011;29713;-33.888;151.150;2023-03-05T00:13:46;2.20;;;0.52;;
44046;SDS011;29713;-33.888;151.150;2023-03-05T00:16:16;4.28;;;0.80;;
44046;SDS011;29713;-33.888;151.150;2023-03-05T00:18:44;3.47;;;0.70;;
44046;SDS011;29713;-33.888;151.150;2023-03-05T00:23:45;2.65;;;0.70;;
44046;SDS011;29713;-33.888;151.150;2023-03-05T00:26:15;0.95;;;0.40;;
44046;SDS011;29713;-33.888;151.150;2023-03-05T00:28:47;1.20;;;0.52;;
44046;SDS011;29713;-33.888;151.150;2023-03-05T00:31:18;2.53;;;0.63;;
44046;SDS011;29713;-33.888;151.150;2023-03-05T00:33:56;2.50;;;0.57;;
44046;SDS011;29713;-33.888;151.150;2023-03-05T00:36:25;2.50;;;0.40;;
44046;SDS011;29713;-33.888;151.150;2023-03-05T00:38:53;2.03;;;0.68;;
44046;SDS011;29713;-33.888;151.150;2023-03-05T00:41:20;3.42;;;1.02;;
44046;SDS011;29713;-33.888;151.150;2023-03-05T00:43:48;2.08;;;0.85;;
44046;SDS011;29713;-33.888;151.150;2023-03-05T00:46:15;1.95;;;0.57;;
44046;SDS011;29713;-33.888;151.150;2023-03-05T00:48:43;1.63;;;0.57;;
44046;SDS011;29713;-33.888;151.150;2023-03-05T00:51:10;1.75;;;0.70;;
44046;SDS011;29713;-33.888;151.150;2023-03-05T00:53:37;2.17;;;0.73;;
44046;SDS011;29713;-33.888;151.150;2023-03-05T00:56:05;3.42;;;2.20;;
44046;SDS011;29713;-33.888;151.150;2023-03-05T00:58:32;1.80;;;0.88;;
44046;SDS011;29713;-33.888;151.150;2023-03-05T01:01:00;2.70;;;1.23;;
44046;SDS011;29713;-33.888;151.150;2023-03-05T01:03:28;2.55;;;0.57;;
44046;SDS011;29713;-33.888;151.150;2023-03-05T01:05:57;3.33;;;2.20;;
44046;SDS011;29713;-33.888;151.150;2023-03-05T01:08:25;5.32;;;1.80;;
44046;SDS011;29713;-33.888;151.150;2023-03-05T01:10:53;1.35;;;0.57;;
44046;SDS011;29713;-33.888;151.150;2023-03-05T01:13:20;2.70;;;0.80;;
44046;SDS011;29713;-33.888;151.150;2023-03-05T01:15:47;1.13;;;0.70;;
44046;SDS011;29713;-33.888;151.150;2023-03-05T01:18:15;2.00;;;0.40;;
44046;SDS011;29713;-33.888;151.150;2023-03-05T01:20:44;1.55;;;0.60;;
44046;SDS011;29713;-33.888;151.150;2023-03-05T01:23:11;3.30;;;0.80;;
44046;SDS011;29713;-33.888;151.150;2023-03-05T01:25:39;3.63;;;1.58;;
44046;SDS011;29713;-33.888;151.150;2023-03-05T01:28:07;2.40;;;0.90;;
44046;SDS011;29713;-33.888;151.150;2023-03-05T01:30:35;2.03;;;0.90;;
44046;SDS011;29713;-33.888;151.150;2023-03-05T01:33:03;5.30;;;1.20;;
44046;SDS011;29713;-33.888;151.150;2023-03-05T01:35:30;4.63;;;1.25;;
44046;SDS011;29713;-33.888;151.150;2023-03-05T01:37:57;9.15;;;1.75;;
44046;SDS011;29713;-33.888;151.150;2023-03-05T01:40:25;4.15;;;1.15;;
44046;SDS011;29713;-33.888;151.150;2023-03-05T01:43:07;5.25;;;1.65;;
44046;SDS011;29713;-33.888;151.150;2023-03-05T01:45:38;3.85;;;1.48;;
44046;SDS011;29713;-33.888;151.150;2023-03-05T01:48:25;4.75;;;1.50;;
44046;SDS011;29713;-33.888;151.150;2023-03-05T01:50:52;6.03;;;1.38;;
44046;SDS011;29713;-33.888;151.150;2023-03-05T01:53:20;7.20;;;1.70;;
44046;SDS011;29713;-33.888;151.150;2023-03-05T01:55:47;3.78;;;1.10;;
44046;SDS011;29713;-33.888;151.150;2023-03-05T01:58:15;5.93;;;1.45;;
44046;SDS011;29713;-33.888;151.150;2023-03-05T02:00:44;7.70;;;1.48;;
44046;SDS011;29713;-33.888;151.150;2023-03-05T02:03:13;5.53;;;1.25;;
44046;SDS011;29713;-33.888;151.150;2023-03-05T02:05:41;5.57;;;1.50;;
44046;SDS011;29713;-33.888;151.150;2023-03-05T02:08:10;6.45;;;1.52;;
44046;SDS011;29713;-33.888;151.150;2023-03-05T02:10:41;6.25;;;1.60;;
44046;SDS011;29713;-33.888;151.150;2023-03-05T02:13:16;7.35;;;1.58;;
44046;SDS011;29713;-33.888;151.150;2023-03-05T02:15:47;4.50;;;1.30;;
44046;SDS011;29713;-33.888;151.150;2023-03-05T02:18:16;6.10;;;1.27;;
44046;SDS011;29713;-33.888;151.150;2023-03-05T02:23:33;4.80;;;1.50;;
44046;SDS011;29713;-33.888;151.150;2023-03-05T02:26:02;5.35;;;1.77;;
44046;SDS011;29713;-33.888;151.150;2023-03-05T02:31:16;11.02;;;5.10;;
44046;SDS011;29713;-33.888;151.150;2023-03-05T02:33:45;7.30;;;3.13;;
44046;SDS011;29713;-33.888;151.150;2023-03-05T02:36:14;8.57;;;4.72;;
44046;SDS011;29713;-33.888;151.150;2023-03-05T02:38:42;6.95;;;2.72;;
44046;SDS011;29713;-33.888;151.150;2023-03-05T02:41:09;6.03;;;1.63;;
44046;SDS011;29713;-33.888;151.150;2023-03-05T02:43:38;5.93;;;1.58;;
44046;SDS011;29713;-33.888;151.150;2023-03-05T02:46:05;6.03;;;1.55;;
44046;SDS011;29713;-33.888;151.150;2023-03-05T02:48:33;3.72;;;1.10;;
44046;SDS011;29713;-33.888;151.150;2023-03-05T02:51:01;4.55;;;1.20;;
44046;SDS011;29713;-33.888;151.150;2023-03-05T02:53:30;5.18;;;1.42;;
44046;SDS011;29713;-33.888;151.150;2023-03-05T02:55:58;5.30;;;1.13;;
44046;SDS011;29713;-33.888;151.150;2023-03-05T02:58:25;5.20;;;1.38;;
44046;SDS011;29713;-33.888;151.150;2023-03-05T03:00:52;6.22;;;1.40;;
44046;SDS011;29713;-33.888;151.150;2023-03-05T03:03:20;4.45;;;1.23;;
44046;SDS011;29713;-33.888;151.150;2023-03-05T03:05:47;5.30;;;1.27;;
44046;SDS011;29713;-33.888;151.150;2023-03-05T03:08:14;3.95;;;1.23;;
44046;SDS011;29713;-33.888;151.150;2023-03-05T03:10:42;4.53;;;1.10;;
44046;SDS011;29713;-33.888;151.150;2023-03-05T03:13:09;3.65;;;1.10;;
44046;SDS011;29713;-33.888;151.150;2023-03-05T03:15:36;3.83;;;1.13;;
44046;SDS011;29713;-33.888;151.150;2023-03-05T03:18:04;4.75;;;1.15;;
44046;SDS011;29713;-33.888;151.150;2023-03-05T03:20:32;4.45;;;1.08;;
44046;SDS011;29713;-33.888;151.150;2023-03-05T03:23:03;4.47;;;1.10;;
44046;SDS011;29713;-33.888;151.150;2023-03-05T03:25:31;4.22;;;1.20;;
44046;SDS011;29713;-33.888;151.150;2023-03-05T03:27:59;6.72;;;1.27;;
44046;SDS011;29713;-33.888;151.150;2023-03-05T03:30:26;3.85;;;1.30;;
44046;SDS011;29713;-33.888;151.150;2023-03-05T03:32:53;9.13;;;1.40;;
44046;SDS011;29713;-33.888;151.150;2023-03-05T03:35:21;6.30;;;1.15;;
44046;SDS011;29713;-33.888;151.150;2023-03-05T03:37:48;7.43;;;1.33;;
44046;SDS011;29713;-33.888;151.150;2023-03-05T03:40:15;3.40;;;1.08;;
44046;SDS011;29713;-33.888;151.150;2023-03-05T03:42:43;4.38;;;1.30;;
44046;SDS011;29713;-33.888;151.150;2023-03-05T03:45:10;4.70;;;1.10;;
44046;SDS011;29713;-33.888;151.150;2023-03-05T03:47:38;5.95;;;1.10;;
44046;SDS011;29713;-33.888;151.150;2023-03-05T03:50:06;5.18;;;1.25;;
44046;SDS011;29713;-33.888;151.150;2023-03-05T03:52:33;4.07;;;0.98;;
44046;SDS011;29713;-33.888;151.150;2023-03-05T03:55:01;6.63;;;1.77;;
44046;SDS011;29713;-33.888;151.150;2023-03-05T03:57:29;7.68;;;1.60;;
44046;SDS011;29713;-33.888;151.150;2023-03-05T03:59:58;5.00;;;1.25;;
44046;SDS011;29713;-33.888;151.150;2023-03-05T04:02:26;4.63;;;1.10;;
44046;SDS011;29713;-33.888;151.150;2023-03-05T04:04:53;5.70;;;1.40;;
44046;SDS011;29713;-33.888;151.150;2023-03-05T04:07:20;5.65;;;1.10;;
44046;SDS011;29713;-33.888;151.150;2023-03-05T04:09:48;3.38;;;1.15;;
44046;SDS011;29713;-33.888;151.150;2023-03-05T04:12:15;6.22;;;1.38;;
44046;SDS011;29713;-33.888;151.150;2023-03-05T04:14:43;5.05;;;1.45;;
44046;SDS011;29713;-33.888;151.150;2023-03-05T04:17:11;5.95;;;1.40;;
44046;SDS011;29713;-33.888;151.150;2023-03-05T04:19:39;3.30;;;1.20;;
44046;SDS011;29713;-33.888;151.150;2023-03-05T04:22:10;6.78;;;1.55;;
44046;SDS011;29713;-33.888;151.150;2023-03-05T04:24:40;4.47;;;1.27;;
44046;SDS011;29713;-33.888;151.150;2023-03-05T04:27:07;5.32;;;1.08;;
44046;SDS011;29713;-33.888;151.150;2023-03-05T04:29:35;4.80;;;1.48;;
44046;SDS011;29713;-33.888;151.150;2023-03-05T04:32:02;3.33;;;1.15;;
44046;SDS011;29713;-33.888;151.150;2023-03-05T04:34:30;3.97;;;1.13;;
44046;SDS011;29713;-33.888;151.150;2023-03-05T04:36:57;4.95;;;1.00;;
44046;SDS011;29713;-33.888;151.150;2023-03-05T04:39:25;4.90;;;1.27;;
44046;SDS011;29713;-33.888;151.150;2023-03-05T04:41:52;5.57;;;0.90;;
44046;SDS011;29713;-33.888;151.150;2023-03-05T04:44:19;6.82;;;1.65;;
44046;SDS011;29713;-33.888;151.150;2023-03-05T04:46:48;5.43;;;1.25;;
44046;SDS011;29713;-33.888;151.150;2023-03-05T04:49:15;5.10;;;1.17;;
44046;SDS011;29713;-33.888;151.150;2023-03-05T04:51:42;5.85;;;1.02;;
44046;SDS011;29713;-33.888;151.150;2023-03-05T04:54:10;5.32;;;1.10;;
44046;SDS011;29713;-33.888;151.150;2023-03-05T04:56:37;4.57;;;1.20;;
44046;SDS011;29713;-33.888;151.150;2023-03-05T04:59:04;4.13;;;1.00;;
44046;SDS011;29713;-33.888;151.150;2023-03-05T05:01:32;5.25;;;1.25;;
44046;SDS011;29713;-33.888;151.150;2023-03-05T05:04:00;4.18;;;1.27;;
44046;SDS011;29713;-33.888;151.150;2023-03-05T05:06:27;6.72;;;1.52;;
44046;SDS011;29713;-33.888;151.150;2023-03-05T05:08:54;9.57;;;1.45;;
44046;SDS011;29713;-33.888;151.150;2023-03-05T05:11:22;4.45;;;1.05;;
44046;SDS011;29713;-33.888;151.150;2023-03-05T05:13:49;6.47;;;1.17;;
44046;SDS011;29713;-33.888;151.150;2023-03-05T05:16:17;5.38;;;1.38;;
44046;SDS011;29713;-33.888;151.150;2023-03-05T05:18:44;5.07;;;1.30;;
44046;SDS011;29713;-33.888;151.150;2023-03-05T05:21:12;5.90;;;1.50;;
44046;SDS011;29713;-33.888;151.150;2023-03-05T05:23:40;3.33;;;1.15;;
44046;SDS011;29713;-33.888;151.150;2023-03-05T05:26:07;4.22;;;1.30;;
44046;SDS011;29713;-33.888;151.150;2023-03-05T05:28:42;5.80;;;0.93;;
44046;SDS011;29713;-33.888;151.150;2023-03-05T05:31:10;6.85;;;1.30;;
44046;SDS011;29713;-33.888;151.150;2023-03-05T05:33:39;8.25;;;1.42;;
44046;SDS011;29713;-33.888;151.150;2023-03-05T05:36:07;4.47;;;1.20;;
44046;SDS011;29713;-33.888;151.150;2023-03-05T05:38:37;4.35;;;1.33;;
44046;SDS011;29713;-33.888;151.150;2023-03-05T05:41:08;5.82;;;1.23;;
44046;SDS011;29713;-33.888;151.150;2023-03-05T05:43:38;6.65;;;1.10;;
44046;SDS011;29713;-33.888;151.150;2023-03-05T05:46:07;4.88;;;1.40;;
44046;SDS011;29713;-33.888;151.150;2023-03-05T05:48:36;5.28;;;1.50;;
44046;SDS011;29713;-33.888;151.150;2023-03-05T05:51:08;7.82;;;1.70;;
44046;SDS011;29713;-33.888;151.150;2023-03-05T05:53:40;8.70;;;1.60;;
44046;SDS011;29713;-33.888;151.150;2023-03-05T05:56:08;5.72;;;1.10;;
44046;SDS011;29713;-33.888;151.150;2023-03-05T05:58:37;6.30;;;1.10;;
44046;SDS011;29713;-33.888;151.150;2023-03-05T06:01:13;5.32;;;1.50;;
44046;SDS011;29713;-33.888;151.150;2023-03-05T06:03:42;6.60;;;1.50;;
44046;SDS011;29713;-33.888;151.150;2023-03-05T06:06:10;4.15;;;1.58;;
44046;SDS011;29713;-33.888;151.150;2023-03-05T06:08:39;4.90;;;1.40;;
44046;SDS011;29713;-33.888;151.150;2023-03-05T06:11:07;5.57;;;1.23;;
44046;SDS011;29713;-33.888;151.150;2023-03-05T06:13:35;8.18;;;1.67;;
44046;SDS011;29713;-33.888;151.150;2023-03-05T06:16:04;5.22;;;1.40;;
44046;SDS011;29713;-33.888;151.150;2023-03-05T06:18:33;5.25;;;1.33;;
44046;SDS011;29713;-33.888;151.150;2023-03-05T06:21:10;3.97;;;1.20;;
44046;SDS011;29713;-33.888;151.150;2023-03-05T06:23:40;6.38;;;1.50;;
44046;SDS011;29713;-33.888;151.150;2023-03-05T06:26:10;4.32;;;1.52;;
44046;SDS011;29713;-33.888;151.150;2023-03-05T06:28:39;4.68;;;1.55;;
44046;SDS011;29713;-33.888;151.150;2023-03-05T06:31:08;6.40;;;1.58;;
44046;SDS011;29713;-33.888;151.150;2023-03-05T06:33:40;9.10;;;1.77;;
44046;SDS011;29713;-33.888;151.150;2023-03-05T06:36:09;5.60;;;1.65;;
44046;SDS011;29713;-33.888;151.150;2023-03-05T06:38:39;8.60;;;1.80;;
44046;SDS011;29713;-33.888;151.150;2023-03-05T06:41:11;6.65;;;1.60;;
44046;SDS011;29713;-33.888;151.150;2023-03-05T06:43:41;6.07;;;1.48;;
44046;SDS011;29713;-33.888;151.150;2023-03-05T06:48:48;4.20;;;1.48;;
44046;SDS011;29713;-33.888;151.150;2023-03-05T06:51:16;7.10;;;1.80;;
44046;SDS011;29713;-33.888;151.150;2023-03-05T06:53:46;8.10;;;1.65;;
44046;SDS011;29713;-33.888;151.150;2023-03-05T06:56:14;7.93;;;1.60;;
44046;SDS011;29713;-33.888;151.150;2023-03-05T06:58:43;7.32;;;1.67;;
44046;SDS011;29713;-33.888;151.150;2023-03-05T07:01:11;8.38;;;2.03;;
44046;SDS011;29713;-33.888;151.150;2023-03-05T07:03:40;4.65;;;1.35;;
44046;SDS011;29713;-33.888;151.150;2023-03-05T07:06:09;7.50;;;1.58;;
44046;SDS011;29713;-33.888;151.150;2023-03-05T07:08:39;8.50;;;2.03;;
44046;SDS011;29713;-33.888;151.150;2023-03-05T07:11:16;7.70;;;2.65;;
44046;SDS011;29713;-33.888;151.150;2023-03-05T07:13:44;4.90;;;1.58;;
44046;SDS011;29713;-33.888;151.150;2023-03-05T07:16:13;7.35;;;2.00;;
44046;SDS011;29713;-33.888;151.150;2023-03-05T07:18:45;9.65;;;2.97;;
44046;SDS011;29713;-33.888;151.150;2023-03-05T07:21:17;6.65;;;1.98;;
44046;SDS011;29713;-33.888;151.150;2023-03-05T07:23:46;6.47;;;2.15;;
44046;SDS011;29713;-33.888;151.150;2023-03-05T07:26:14;10.23;;;2.08;;
44046;SDS011;29713;-33.888;151.150;2023-03-05T07:28:41;6.75;;;1.90;;
44046;SDS011;29713;-33.888;151.150;2023-03-05T07:31:19;6.35;;;1.50;;
44046;SDS011;29713;-33.888;151.150;2023-03-05T07:33:51;5.95;;;2.00;;
44046;SDS011;29713;-33.888;151.150;2023-03-05T07:36:20;11.35;;;2.00;;
44046;SDS011;29713;-33.888;151.150;2023-03-05T07:38:47;9.10;;;1.83;;
44046;SDS011;29713;-33.888;151.150;2023-03-05T07:41:15;8.32;;;2.28;;
44046;SDS011;29713;-33.888;151.150;2023-03-05T07:43:44;11.80;;;2.20;;
44046;SDS011;29713;-33.888;151.150;2023-03-05T07:46:14;7.57;;;1.73;;
44046;SDS011;29713;-33.888;151.150;2023-03-05T07:48:43;7.20;;;1.67;;
44046;SDS011;29713;-33.888;151.150;2023-03-05T07:51:15;8.77;;;2.15;;
44046;SDS011;29713;-33.888;151.150;2023-03-05T07:53:44;12.20;;;1.98;;
44046;SDS011;29713;-33.888;151.150;2023-03-05T07:56:13;8.27;;;2.25;;
44046;SDS011;29713;-33.888;151.150;2023-03-05T07:58:51;9.23;;;1.73;;
44046;SDS011;29713;-33.888;151.150;2023-03-05T08:01:19;7.93;;;2.00;;
44046;SDS011;29713;-33.888;151.150;2023-03-05T08:03:46;6.13;;;1.52;;
44046;SDS011;29713;-33.888;151.150;2023-03-05T08:06:13;10.55;;;2.25;;
44046;SDS011;29713;-33.888;151.150;2023-03-05T08:08:41;8.85;;;1.90;;
44046;SDS011;29713;-33.888;151.150;2023-03-05T08:11:09;5.95;;;2.00;;
44046;SDS011;29713;-33.888;151.150;2023-03-05T08:13:38;14.20;;;2.05;;
44046;SDS011;29713;-33.888;151.150;2023-03-05T08:16:11;10.18;;;2.40;;
44046;SDS011;29713;-33.888;151.150;2023-03-05T08:18:40;7.80;;;1.88;;
44046;SDS011;29713;-33.888;151.150;2023-03-05T08:21:14;12.27;;;2.75;;
44046;SDS011;29713;-33.888;151.150;2023-03-05T08:23:46;10.93;;;2.38;;
44046;SDS011;29713;-33.888;151.150;2023-03-05T08:26:14;6.82;;;1.60;;
44046;SDS011;29713;-33.888;151.150;2023-03-05T08:28:43;7.88;;;1.95;;
44046;SDS011;29713;-33.888;151.150;2023-03-05T08:31:11;8.10;;;1.73;;
44046;SDS011;29713;-33.888;151.150;2023-03-05T08:33:40;10.65;;;2.03;;
44046;SDS011;29713;-33.888;151.150;2023-03-05T08:36:08;8.15;;;2.22;;
44046;SDS011;29713;-33.888;151.150;2023-03-05T08:38:35;11.73;;;2.33;;
44046;SDS011;29713;-33.888;151.150;2023-03-05T08:41:03;10.70;;;2.67;;
44046;SDS011;29713;-33.888;151.150;2023-03-05T08:43:31;8.82;;;2.38;;
44046;SDS011;29713;-33.888;151.150;2023-03-05T08:45:59;11.43;;;2.00;;
44046;SDS011;29713;-33.888;151.150;2023-03-05T08:48:27;10.05;;;2.00;;
44046;SDS011;29713;-33.888;151.150;2023-03-05T08:50:56;6.80;;;1.77;;
44046;SDS011;29713;-33.888;151.150;2023-03-05T08:53:29;10.35;;;2.35;;
44046;SDS011;29713;-33.888;151.150;2023-03-05T08:55:57;15.15;;;2.70;;
44046;SDS011;29713;-33.888;151.150;2023-03-05T08:58:24;14.55;;;2.38;;
44046;SDS011;29713;-33.888;151.150;2023-03-05T09:00:51;12.23;;;2.42;;
44046;SDS011;29713;-33.888;151.150;2023-03-05T09:03:19;10.32;;;2.13;;
44046;SDS011;29713;-33.888;151.150;2023-03-05T09:05:46;10.60;;;2.25;;
44046;SDS011;29713;-33.888;151.150;2023-03-05T09:08:13;8.10;;;2.38;;
44046;SDS011;29713;-33.888;151.150;2023-03-05T09:10:41;9.57;;;2.15;;
44046;SDS011;29713;-33.888;151.150;2023-03-05T09:13:09;13.70;;;2.35;;
44046;SDS011;29713;-33.888;151.150;2023-03-05T09:15:37;8.43;;;2.00;;
44046;SDS011;29713;-33.888;151.150;2023-03-05T09:18:04;9.52;;;2.35;;
44046;SDS011;29713;-33.888;151.150;2023-03-05T09:20:34;8.77;;;2.40;;
44046;SDS011;29713;-33.888;151.150;2023-03-05T09:23:02;11.13;;;2.40;;
44046;SDS011;29713;-33.888;151.150;2023-03-05T09:25:29;10.18;;;2.33;;
44046;SDS011;29713;-33.888;151.150;2023-03-05T09:27:56;8.77;;;2.20;;
44046;SDS011;29713;-33.888;151.150;2023-03-05T09:30:24;9.60;;;1.90;;
44046;SDS011;29713;-33.888;151.150;2023-03-05T09:32:51;9.80;;;1.83;;
44046;SDS011;29713;-33.888;151.150;2023-03-05T09:35:18;11.38;;;2.28;;
44046;SDS011;29713;-33.888;151.150;2023-03-05T09:37:45;7.47;;;2.17;;
44046;SDS011;29713;-33.888;151.150;2023-03-05T09:40:17;11.43;;;2.28;;
44046;SDS011;29713;-33.888;151.150;2023-03-05T09:45:25;10.15;;;2.30;;
44046;SDS011;29713;-33.888;151.150;2023-03-05T09:48:05;7.55;;;2.20;;
44046;SDS011;29713;-33.888;151.150;2023-03-05T09:53:30;13.07;;;2.53;;
44046;SDS011;29713;-33.888;151.150;2023-03-05T09:55:59;8.00;;;2.15;;
44046;SDS011;29713;-33.888;151.150;2023-03-05T09:58:33;10.80;;;2.53;;
44046;SDS011;29713;-33.888;151.150;2023-03-05T10:01:03;9.43;;;2.25;;
44046;SDS011;29713;-33.888;151.150;2023-03-05T10:03:55;10.07;;;2.00;;
44046;SDS011;29713;-33.888;151.150;2023-03-05T10:06:31;13.13;;;2.08;;
44046;SDS011;29713;-33.888;151.150;2023-03-05T10:09:11;12.30;;;2.10;;
44046;SDS011;29713;-33.888;151.150;2023-03-05T10:12:09;13.02;;;2.08;;
44046;SDS011;29713;-33.888;151.150;2023-03-05T10:14:57;8.90;;;2.10;;
44046;SDS011;29713;-33.888;151.150;2023-03-05T10:23:16;9.40;;;1.88;;
44046;SDS011;29713;-33.888;151.150;2023-03-05T10:29:05;9.68;;;2.08;;
44046;SDS011;29713;-33.888;151.150;2023-03-05T10:37:15;9.52;;;2.15;;
44046;SDS011;29713;-33.888;151.150;2023-03-05T10:45:35;10.93;;;2.33;;
44046;SDS011;29713;-33.888;151.150;2023-03-05T10:50:49;6.78;;;2.17;;
44046;SDS011;29713;-33.888;151.150;2023-03-05T10:53:37;11.20;;;2.17;;
44046;SDS011;29713;-33.888;151.150;2023-03-05T10:56:14;14.75;;;2.90;;
44046;SDS011;29713;-33.888;151.150;2023-03-05T10:58:44;12.27;;;2.15;;
44046;SDS011;29713;-33.888;151.150;2023-03-05T11:14:31;9.45;;;2.00;;
44046;SDS011;29713;-33.888;151.150;2023-03-05T11:16:59;10.27;;;2.13;;
44046;SDS011;29713;-33.888;151.150;2023-03-05T11:19:29;11.00;;;2.35;;
44046;SDS011;29713;-33.888;151.150;2023-03-05T11:22:31;10.13;;;2.53;;
44046;SDS011;29713;-33.888;151.150;2023-03-05T11:27:34;9.02;;;2.13;;
44046;SDS011;29713;-33.888;151.150;2023-03-05T11:30:17;8.70;;;2.10;;
44046;SDS011;29713;-33.888;151.150;2023-03-05T11:33:20;10.32;;;2.35;;
44046;SDS011;29713;-33.888;151.150;2023-03-05T11:35:48;12.82;;;2.08;;
44046;SDS011;29713;-33.888;151.150;2023-03-05T11:40:49;7.80;;;2.25;;
44046;SDS011;29713;-33.888;151.150;2023-03-05T11:43:19;9.05;;;2.08;;
44046;SDS011;29713;-33.888;151.150;2023-03-05T11:45:49;7.15;;;2.03;;
44046;SDS011;29713;-33.888;151.150;2023-03-05T11:48:29;9.27;;;2.00;;
44046;SDS011;29713;-33.888;151.150;2023-03-05T11:51:06;8.80;;;2.10;;
44046;SDS011;29713;-33.888;151.150;2023-03-05T11:53:55;10.00;;;2.17;;
44046;SDS011;29713;-33.888;151.150;2023-03-05T11:56:30;6.32;;;1.73;;
44046;SDS011;29713;-33.888;151.150;2023-03-05T12:01:54;10.88;;;2.10;;
44046;SDS011;29713;-33.888;151.150;2023-03-05T12:04:22;11.02;;;2.33;;
44046;SDS011;29713;-33.888;151.150;2023-03-05T12:23:27;7.13;;;1.95;;
44046;SDS011;29713;-33.888;151.150;2023-03-05T12:26:09;10.82;;;2.22;;
44046;SDS011;29713;-33.888;151.150;2023-03-05T12:39:41;8.40;;;2.30;;
44046;SDS011;29713;-33.888;151.150;2023-03-05T12:58:01;8.75;;;2.20;;
44046;SDS011;29713;-33.888;151.150;2023-03-05T13:03:18;8.98;;;1.95;;
44046;SDS011;29713;-33.888;151.150;2023-03-05T13:05:53;6.82;;;1.70;;
44046;SDS011;29713;-33.888;151.150;2023-03-05T13:08:26;6.60;;;1.75;;
44046;SDS011;29713;-33.888;151.150;2023-03-05T13:11:01;7.63;;;1.70;;
44046;SDS011;29713;-33.888;151.150;2023-03-05T13:13:40;7.80;;;1.95;;
44046;SDS011;29713;-33.888;151.150;2023-03-05T13:16:19;5.55;;;1.75;;
44046;SDS011;29713;-33.888;151.150;2023-03-05T13:18:49;5.38;;;1.75;;
44046;SDS011;29713;-33.888;151.150;2023-03-05T13:21:19;4.00;;;1.77;;
44046;SDS011;29713;-33.888;151.150;2023-03-05T13:23:52;7.28;;;2.13;;
44046;SDS011;29713;-33.888;151.150;2023-03-05T13:34:19;4.78;;;1.38;;
44046;SDS011;29713;-33.888;151.150;2023-03-05T13:39:42;6.88;;;1.65;;
44046;SDS011;29713;-33.888;151.150;2023-03-05T13:42:15;8.07;;;1.92;;
44046;SDS011;29713;-33.888;151.150;2023-03-05T13:44:43;8.32;;;2.22;;
44046;SDS011;29713;-33.888;151.150;2023-03-05T13:47:21;7.63;;;2.15;;
44046;SDS011;29713;-33.888;151.150;2023-03-05T13:49:57;4.88;;;1.77;;
44046;SDS011;29713;-33.888;151.150;2023-03-05T13:52:26;7.30;;;1.70;;
44046;SDS011;29713;-33.888;151.150;2023-03-05T13:54:56;5.00;;;1.20;;
44046;SDS011;29713;-33.888;151.150;2023-03-05T13:57:58;10.93;;;2.20;;
44046;SDS011;29713;-33.888;151.150;2023-03-05T14:00:36;9.07;;;1.98;;
44046;SDS011;29713;-33.888;151.150;2023-03-05T14:03:18;8.73;;;2.15;;
44046;SDS011;29713;-33.888;151.150;2023-03-05T14:05:52;6.47;;;1.70;;
44046;SDS011;29713;-33.888;151.150;2023-03-05T14:08:20;5.25;;;1.77;;
44046;SDS011;29713;-33.888;151.150;2023-03-05T14:10:50;8.65;;;1.48;;
44046;SDS011;29713;-33.888;151.150;2023-03-05T14:13:25;10.15;;;1.95;;
44046;SDS011;29713;-33.888;151.150;2023-03-05T14:16:02;5.72;;;1.35;;
44046;SDS011;29713;-33.888;151.150;2023-03-05T14:18:30;8.80;;;1.80;;
44046;SDS011;29713;-33.888;151.150;2023-03-05T14:20:59;9.77;;;1.88;;
44046;SDS011;29713;-33.888;151.150;2023-03-05T14:28:54;5.32;;;1.45;;
44046;SDS011;29713;-33.888;151.150;2023-03-05T14:31:24;5.25;;;1.80;;
44046;SDS011;29713;-33.888;151.150;2023-03-05T14:33:53;5.40;;;1.67;;
44046;SDS011;29713;-33.888;151.150;2023-03-05T14:36:30;6.25;;;1.73;;
44046;SDS011;29713;-33.888;151.150;2023-03-05T14:38:58;6.93;;;1.55;;
44046;SDS011;29713;-33.888;151.150;2023-03-05T14:41:40;3.28;;;1.52;;
44046;SDS011;29713;-33.888;151.150;2023-03-05T14:44:15;9.55;;;2.10;;
44046;SDS011;29713;-33.888;151.150;2023-03-05T14:46:47;7.13;;;1.40;;
44046;SDS011;29713;-33.888;151.150;2023-03-05T14:49:15;4.38;;;1.60;;
44046;SDS011;29713;-33.888;151.150;2023-03-05T14:51:43;10.23;;;1.77;;
44046;SDS011;29713;-33.888;151.150;2023-03-05T14:54:18;5.82;;;1.80;;
44046;SDS011;29713;-33.888;151.150;2023-03-05T14:56:48;5.97;;;1.50;;
44046;SDS011;29713;-33.888;151.150;2023-03-05T14:59:18;6.30;;;1.63;;
44046;SDS011;29713;-33.888;151.150;2023-03-05T15:01:46;4.82;;;1.42;;
44046;SDS011;29713;-33.888;151.150;2023-03-05T15:04:15;6.22;;;1.60;;
44046;SDS011;29713;-33.888;151.150;2023-03-05T15:06:44;5.18;;;1.73;;
44046;SDS011;29713;-33.888;151.150;2023-03-05T15:09:15;7.90;;;1.63;;
44046;SDS011;29713;-33.888;151.150;2023-03-05T15:11:44;4.55;;;1.58;;
44046;SDS011;29713;-33.888;151.150;2023-03-05T15:14:12;6.60;;;1.50;;
44046;SDS011;29713;-33.888;151.150;2023-03-05T15:16:40;3.28;;;1.27;;
44046;SDS011;29713;-33.888;151.150;2023-03-05T15:19:10;4.80;;;1.77;;
44046;SDS011;29713;-33.888;151.150;2023-03-05T15:21:38;5.45;;;1.63;;
44046;SDS011;29713;-33.888;151.150;2023-03-05T15:24:06;5.85;;;1.67;;
44046;SDS011;29713;-33.888;151.150;2023-03-05T15:26:34;4.55;;;1.40;;
44046;SDS011;29713;-33.888;151.150;2023-03-05T15:29:01;6.18;;;1.67;;
44046;SDS011;29713;-33.888;151.150;2023-03-05T15:31:29;6.75;;;1.65;;
44046;SDS011;29713;-33.888;151.150;2023-03-05T15:34:03;7.97;;;1.80;;
44046;SDS011;29713;-33.888;151.150;2023-03-05T15:36:31;7.88;;;1.95;;
44046;SDS011;29713;-33.888;151.150;2023-03-05T15:38:58;6.53;;;1.80;;
44046;SDS011;29713;-33.888;151.150;2023-03-05T15:41:25;6.45;;;1.85;;
44046;SDS011;29713;-33.888;151.150;2023-03-05T15:43:53;4.18;;;1.63;;
44046;SDS011;29713;-33.888;151.150;2023-03-05T15:46:20;4.65;;;1.60;;
44046;SDS011;29713;-33.888;151.150;2023-03-05T15:48:48;7.75;;;1.58;;
44046;SDS011;29713;-33.888;151.150;2023-03-05T15:51:15;6.70;;;1.38;;
44046;SDS011;29713;-33.888;151.150;2023-03-05T15:53:44;9.70;;;1.77;;
44046;SDS011;29713;-33.888;151.150;2023-03-05T15:56:15;3.85;;;1.48;;
44046;SDS011;29713;-33.888;151.150;2023-03-05T15:58:43;5.32;;;1.65;;
44046;SDS011;29713;-33.888;151.150;2023-03-05T16:01:11;5.85;;;1.67;;
44046;SDS011;29713;-33.888;151.150;2023-03-05T16:03:40;5.15;;;1.67;;
44046;SDS011;29713;-33.888;151.150;2023-03-05T16:06:07;8.32;;;1.95;;
44046;SDS011;29713;-33.888;151.150;2023-03-05T16:08:37;4.40;;;1.77;;
44046;SDS011;29713;-33.888;151.150;2023-03-05T16:11:06;5.45;;;1.88;;
44046;SDS011;29713;-33.888;151.150;2023-03-05T16:13:33;6.38;;;1.80;;
44046;SDS011;29713;-33.888;151.150;2023-03-05T16:16:02;6.85;;;1.98;;
44046;SDS011;29713;-33.888;151.150;2023-03-05T16:18:32;7.55;;;1.88;;
44046;SDS011;29713;-33.888;151.150;2023-03-05T16:21:04;5.47;;;1.85;;
44046;SDS011;29713;-33.888;151.150;2023-03-05T16:23:31;9.95;;;2.20;;
44046;SDS011;29713;-33.888;151.150;2023-03-05T16:25:59;5.28;;;1.58;;